Westfield, Illinois
Current Conditions -  °F | °C
As of 3:53 PM on Thursday 27 Nov 2014 (Local Time) from KMTO Reporting Station
Overcast Overcast  
Wind Chill: 11°   Ceiling: 1600
Heat Index: 25°   Visibility: 10mi
Dew Point: 19°   Wind: 20mph
Humidity: 78%   Direction: 300°WNW
Pressure: 30.42"   Gusts: NA
Location:  39.46°N, 88°W
Report Text: KMTO 272153Z AUTO 30017KT 10SM BKN016 OVC037 M04/M07 A3042 RMK AO2 SLP312 T10391072
Loading
Personal Weather Stations






























Interactive Weather Map New forecast layout! Learn more

10-Day Weather Forecast

Advertisements
Track Severe Weather on mobile